createdAt,value
2022-09-05T00:01:28.773Z,4.82
2022-09-05T00:04:23.601Z,4.55
2022-09-05T00:07:03.080Z,4.50
2022-09-05T00:09:58.494Z,4.50
2022-09-05T00:12:34.053Z,4.60
2022-09-05T00:15:19.290Z,4.40
2022-09-05T00:20:00.120Z,5.38
2022-09-05T00:24:29.590Z,5.65
2022-09-05T00:24:35.422Z,4.93
2022-09-05T00:27:02.473Z,5.00
2022-09-05T00:31:07.679Z,4.93
2022-09-05T00:32:58.421Z,5.63
2022-09-05T00:35:32.118Z,4.97
2022-09-05T00:38:15.140Z,5.00
2022-09-05T00:40:48.887Z,4.97
2022-09-05T00:43:27.884Z,5.60
2022-09-05T00:46:02.964Z,6.15
2022-09-05T00:48:39.722Z,5.57
2022-09-05T00:51:34.297Z,5.28
2022-09-05T00:54:40.498Z,5.70
2022-09-05T00:57:31.769Z,6.13
2022-09-05T01:00:17.228Z,5.25
2022-09-05T01:03:10.735Z,5.60
2022-09-05T01:05:54.458Z,5.28
2022-09-05T01:08:44.833Z,5.35
2022-09-05T01:11:22.659Z,5.20
2022-09-05T01:14:01.117Z,4.90
2022-09-05T01:16:40.107Z,5.78
2022-09-05T01:19:21.971Z,6.05
2022-09-05T01:22:11.118Z,5.03
2022-09-05T01:24:57.399Z,5.43
2022-09-05T01:29:13.273Z,4.97
2022-09-05T01:30:47.966Z,5.03
2022-09-05T01:33:26.128Z,5.68
2022-09-05T01:36:14.231Z,5.82
2022-09-05T01:39:09.659Z,6.33
2022-09-05T01:41:44.443Z,5.95
2022-09-05T01:44:29.663Z,6.22
2022-09-05T01:47:10.953Z,5.43
2022-09-05T01:50:00.718Z,5.88
2022-09-05T01:52:58.787Z,5.53
2022-09-05T01:56:04.601Z,6.63
2022-09-05T01:58:50.092Z,7.45
2022-09-05T02:01:32.447Z,6.25
2022-09-05T02:04:28.989Z,5.97
2022-09-05T02:07:20.044Z,6.13
2022-09-05T02:10:10.636Z,6.35
2022-09-05T02:12:58.443Z,5.50
2022-09-05T02:15:52.453Z,6.22
2022-09-05T02:21:24.660Z,5.40
2022-09-05T02:24:06.396Z,6.35
2022-09-05T02:26:46.250Z,5.13
2022-09-05T02:29:28.642Z,6.30
2022-09-05T02:32:05.234Z,6.43
2022-09-05T02:34:44.372Z,5.60
2022-09-05T02:38:36.661Z,6.32
2022-09-05T02:45:06.686Z,5.82
2022-09-05T02:45:10.847Z,6.43
2022-09-05T02:46:18.107Z,6.30
2022-09-05T02:48:56.266Z,5.63
2022-09-05T02:57:25.826Z,7.07
2022-09-05T02:57:35.086Z,5.70
2022-09-05T02:58:05.317Z,7.83
2022-09-05T03:00:32.021Z,5.30
2022-09-05T03:03:15.863Z,6.93
2022-09-05T03:05:52.827Z,7.25
2022-09-05T03:08:44.902Z,6.70
2022-09-05T03:11:46.972Z,7.13
2022-09-05T03:14:50.730Z,7.07
2022-09-05T03:18:20.300Z,6.73
2022-09-05T03:21:20.497Z,7.10
2022-09-05T03:24:20.525Z,7.00
2022-09-05T03:27:12.126Z,7.22
2022-09-05T03:30:12.389Z,7.20
2022-09-05T03:33:25.017Z,5.80
2022-09-05T03:36:28.943Z,7.00
2022-09-05T03:39:28.414Z,7.03
2022-09-05T03:42:14.852Z,6.73
2022-09-05T03:44:56.496Z,6.30
2022-09-05T03:47:41.554Z,6.32
2022-09-05T03:57:07.416Z,5.45
2022-09-05T03:57:10.995Z,6.90
2022-09-05T03:57:11.163Z,6.97
2022-09-05T03:59:54.075Z,6.85
2022-09-05T04:08:06.466Z,6.90
2022-09-05T04:08:17.884Z,7.30
2022-09-05T04:08:34.261Z,6.95
2022-09-05T04:11:11.718Z,7.03
2022-09-05T04:13:52.654Z,6.87
2022-09-05T04:16:28.566Z,6.30
2022-09-05T04:21:48.612Z,6.70
2022-09-05T04:24:28.493Z,5.40
2022-09-05T04:27:19.653Z,7.15
2022-09-05T04:30:04.964Z,7.07
2022-09-05T04:32:59.151Z,6.72
2022-09-05T04:35:38.458Z,7.07
2022-09-05T04:38:16.323Z,6.57
2022-09-05T04:41:00.559Z,6.63
2022-09-05T04:43:37.620Z,5.83
2022-09-05T04:46:19.626Z,6.60
2022-09-05T04:48:59.502Z,6.22
2022-09-05T04:51:35.321Z,7.15
2022-09-05T04:54:39.884Z,6.75
2022-09-05T04:57:21.458Z,6.90
2022-09-05T05:04:52.164Z,7.65
2022-09-05T05:06:10.661Z,7.20
2022-09-05T05:06:31.799Z,12.30
2022-09-05T05:08:56.320Z,8.30
2022-09-05T05:17:55.480Z,7.97
2022-09-05T05:18:01.320Z,7.35
2022-09-05T05:18:14.833Z,6.25
2022-09-05T05:20:40.127Z,9.07
2022-09-05T05:23:17.492Z,7.53
2022-09-05T05:25:54.492Z,7.28
2022-09-05T05:28:31.368Z,7.32
2022-09-05T05:31:13.177Z,6.15
2022-09-05T05:33:49.903Z,7.05
2022-09-05T05:36:27.889Z,6.50
2022-09-05T05:39:04.187Z,6.75
2022-09-05T05:41:38.217Z,7.03
2022-09-05T05:44:15.782Z,6.60
2022-09-05T05:46:56.527Z,6.47
2022-09-05T05:49:49.632Z,5.90
2022-09-05T05:52:47.920Z,5.20
2022-09-05T05:55:52.456Z,5.72
2022-09-05T05:58:43.364Z,6.35
2022-09-05T06:01:46.717Z,5.47
2022-09-05T06:04:45.594Z,5.15
2022-09-05T06:07:25.813Z,5.45
2022-09-05T06:14:51.107Z,5.72
2022-09-05T06:15:02.951Z,5.20
2022-09-05T06:17:46.402Z,5.27
2022-09-05T06:22:05.636Z,5.22
2022-09-05T06:23:43.462Z,5.30
2022-09-05T06:26:49.530Z,5.22
2022-09-05T06:29:34.638Z,6.13
2022-09-05T06:32:25.462Z,5.15
2022-09-05T06:35:18.613Z,9.23
2022-09-05T06:37:59.885Z,7.90
2022-09-05T06:40:36.395Z,6.80
2022-09-05T06:43:16.490Z,6.47
2022-09-05T06:46:09.424Z,5.82
2022-09-05T06:49:30.954Z,5.00
2022-09-05T06:52:26.324Z,4.87
2022-09-05T06:55:18.484Z,4.60
2022-09-05T06:58:26.751Z,4.63
2022-09-05T07:01:02.415Z,4.72
2022-09-05T07:05:14.607Z,4.63
2022-09-05T07:07:18.353Z,3.93
2022-09-05T07:10:03.849Z,4.43
2022-09-05T07:12:49.727Z,4.50
2022-09-05T07:15:35.351Z,4.40
2022-09-05T07:18:14.661Z,4.10
2022-09-05T07:21:18.273Z,4.22
2022-09-05T07:24:05.794Z,4.57
2022-09-05T07:26:51.839Z,4.15
2022-09-05T07:29:30.764Z,4.55
2022-09-05T07:32:07.078Z,5.43
2022-09-05T07:34:41.974Z,3.95
2022-09-05T07:37:20.087Z,4.20
2022-09-05T07:39:55.253Z,4.00
2022-09-05T07:45:11.919Z,3.80
2022-09-05T07:47:48.693Z,4.13
2022-09-05T07:53:29.513Z,4.07
2022-09-05T07:56:49.005Z,3.83
2022-09-05T07:59:14.334Z,3.80
2022-09-05T08:01:50.860Z,4.20
2022-09-05T08:04:30.399Z,3.70
2022-09-05T08:07:48.227Z,3.67
2022-09-05T08:10:06.205Z,3.40
2022-09-05T08:13:22.669Z,3.40
2022-09-05T08:16:10.325Z,4.22
2022-09-05T08:18:45.458Z,3.28
2022-09-05T08:21:27.283Z,3.58
2022-09-05T08:24:13.344Z,3.42
2022-09-05T08:26:49.949Z,3.65
2022-09-05T08:29:32.435Z,3.33
2022-09-05T08:32:11.165Z,3.40
2022-09-05T08:34:46.835Z,4.03
2022-09-05T08:40:09.972Z,3.38
2022-09-05T08:43:38.067Z,3.07
2022-09-05T08:46:40.509Z,3.70
2022-09-05T08:49:09.725Z,3.10
2022-09-05T08:54:33.637Z,3.60
2022-09-05T08:57:13.740Z,3.13
2022-09-05T09:00:18.546Z,3.30
2022-09-05T09:03:04.051Z,3.47
2022-09-05T09:06:13.563Z,3.38
2022-09-05T09:09:07.557Z,3.28
2022-09-05T09:11:44.530Z,3.78
2022-09-05T09:14:39.207Z,3.00
2022-09-05T09:17:30.652Z,3.05
2022-09-05T09:20:18.260Z,2.95
2022-09-05T09:23:31.838Z,2.85
2022-09-05T09:26:06.316Z,2.90
2022-09-05T09:29:07.242Z,3.28
2022-09-05T09:31:54.719Z,3.37
2022-09-05T09:34:49.455Z,3.30
2022-09-05T09:37:59.549Z,2.97
2022-09-05T09:40:55.190Z,2.45
2022-09-05T09:43:53.174Z,3.00
2022-09-05T09:46:30.790Z,2.90
2022-09-05T09:49:23.419Z,3.00
2022-09-05T09:51:57.390Z,3.03
2022-09-05T09:55:02.707Z,2.63
2022-09-05T09:58:07.542Z,2.97
2022-09-05T10:00:51.763Z,2.85
2022-09-05T10:08:07.519Z,2.90
2022-09-05T10:10:46.650Z,2.90
2022-09-05T10:11:00.445Z,2.40
2022-09-05T10:13:08.964Z,2.50
2022-09-05T10:15:50.143Z,3.03
2022-09-05T10:18:46.852Z,2.60
2022-09-05T10:21:36.157Z,2.65
2022-09-05T10:24:23.283Z,3.05
2022-09-05T10:27:18.364Z,2.45
2022-09-05T10:30:12.594Z,3.00
2022-09-05T10:35:04.457Z,3.03
2022-09-05T10:35:51.546Z,2.92
2022-09-05T10:38:32.754Z,2.85
2022-09-05T10:41:20.853Z,2.45
2022-09-05T10:44:02.511Z,3.13
2022-09-05T10:46:51.275Z,2.95
2022-09-05T10:49:30.439Z,2.80
2022-09-05T10:52:18.989Z,2.40
2022-09-05T10:54:54.709Z,2.67
2022-09-05T10:58:01.708Z,2.42
2022-09-05T11:02:26.778Z,2.75
2022-09-05T11:04:05.309Z,2.60
2022-09-05T11:06:57.664Z,2.75
2022-09-05T11:09:41.417Z,2.75
2022-09-05T11:12:30.013Z,2.35
2022-09-05T11:15:05.732Z,2.33
2022-09-05T11:17:42.743Z,2.45
2022-09-05T11:20:42.373Z,2.50
2022-09-05T11:23:21.236Z,1.95
2022-09-05T11:26:04.114Z,2.20
2022-09-05T11:29:00.629Z,2.20
2022-09-05T11:31:34.556Z,2.67
2022-09-05T11:40:00.458Z,2.22
2022-09-05T11:40:24.955Z,2.00
2022-09-05T11:41:25.904Z,2.03
2022-09-05T11:44:24.693Z,2.10
2022-09-05T11:47:36.157Z,2.22
2022-09-05T11:50:32.278Z,2.20
2022-09-05T11:53:34.683Z,2.10
2022-09-05T11:56:32.461Z,2.25
2022-09-05T11:59:37.677Z,1.92
2022-09-05T12:02:37.674Z,2.20
2022-09-05T12:05:47.651Z,1.90
2022-09-05T12:08:26.300Z,2.60
2022-09-05T12:11:14.266Z,1.98
2022-09-05T12:13:51.297Z,2.10
2022-09-05T12:16:46.027Z,1.75
2022-09-05T12:19:27.267Z,1.80
2022-09-05T12:22:32.941Z,2.05
2022-09-05T12:27:40.468Z,2.10
2022-09-05T12:29:32.961Z,2.13
2022-09-05T12:32:59.493Z,2.20
2022-09-05T12:36:09.769Z,2.10
2022-09-05T12:40:58.445Z,2.20
2022-09-05T12:41:36.785Z,2.10
2022-09-05T12:44:39.477Z,2.30
2022-09-05T12:46:55.748Z,2.00
2022-09-05T12:49:35.240Z,2.95
2022-09-05T12:52:10.557Z,2.00
2022-09-05T12:54:49.439Z,2.50
2022-09-05T13:01:31.977Z,1.80
2022-09-05T13:03:02.982Z,2.00
2022-09-05T13:03:28.214Z,2.47
2022-09-05T13:06:09.031Z,3.20
2022-09-05T13:08:59.238Z,1.98
2022-09-05T13:14:47.446Z,2.08
2022-09-05T13:15:07.872Z,2.58
2022-09-05T13:17:37.307Z,2.00
2022-09-05T13:20:26.081Z,2.20
2022-09-05T13:22:58.519Z,2.15
2022-09-05T13:25:33.227Z,2.00
2022-09-05T13:28:08.947Z,1.70
2022-09-05T13:37:53.963Z,1.97
2022-09-05T13:38:14.031Z,2.17
2022-09-05T13:38:30.808Z,2.07
2022-09-05T13:39:51.932Z,2.10
2022-09-05T13:42:26.937Z,1.90
2022-09-05T13:45:02.407Z,1.98
2022-09-05T13:47:51.561Z,1.67
2022-09-05T13:50:28.562Z,2.38
2022-09-05T13:53:10.338Z,2.20
2022-09-05T13:55:53.189Z,1.70
2022-09-05T13:58:31.541Z,1.70
2022-09-05T14:02:25.410Z,1.50
2022-09-05T14:05:09.674Z,2.00
2022-09-05T14:10:46.228Z,2.15
2022-09-05T14:13:24.457Z,1.80
2022-09-05T14:16:01.314Z,1.77
2022-09-05T14:18:56.593Z,2.13
2022-09-05T14:21:30.321Z,1.80
2022-09-05T14:24:09.635Z,2.15
2022-09-05T14:26:48.582Z,1.80
2022-09-05T14:29:26.517Z,1.58
2022-09-05T14:37:35.848Z,1.60
2022-09-05T14:37:42.301Z,1.83
2022-09-05T14:38:43.409Z,1.80
2022-09-05T14:41:33.755Z,1.75
2022-09-05T14:44:05.329Z,1.60
2022-09-05T14:47:02.894Z,1.60
2022-09-05T14:49:59.668Z,1.65
2022-09-05T14:52:43.696Z,1.90
2022-09-05T14:55:21.137Z,1.60
2022-09-05T15:02:45.162Z,1.80
2022-09-05T15:02:50.648Z,1.50
2022-09-05T15:06:48.465Z,1.85
2022-09-05T15:12:14.090Z,1.73
2022-09-05T15:12:38.542Z,1.60
2022-09-05T15:15:26.075Z,1.77
2022-09-05T15:18:02.199Z,1.92
2022-09-05T15:20:43.626Z,1.83
2022-09-05T15:23:34.546Z,1.80
2022-09-05T15:26:10.613Z,1.45
2022-09-05T15:28:47.219Z,1.80
2022-09-05T15:34:04.186Z,1.67
2022-09-05T15:36:42.635Z,1.50
2022-09-05T15:39:23.456Z,1.80
2022-09-05T15:42:01.116Z,1.75
2022-09-05T15:44:53.172Z,1.92
2022-09-05T15:47:30.286Z,2.22
2022-09-05T15:50:05.804Z,2.13
2022-09-05T15:52:45.614Z,1.70
2022-09-05T15:55:22.422Z,1.77
2022-09-05T15:57:58.997Z,1.60
2022-09-05T16:00:48.110Z,1.20
2022-09-05T16:07:01.224Z,1.83
2022-09-05T16:10:30.223Z,1.30
2022-09-05T16:10:45.945Z,1.70
2022-09-05T16:12:36.758Z,1.65
2022-09-05T16:16:35.311Z,1.40
2022-09-05T16:23:16.012Z,1.40
2022-09-05T16:23:17.311Z,1.48
2022-09-05T16:26:46.851Z,1.42
2022-09-05T16:29:26.803Z,1.60
2022-09-05T16:32:13.369Z,1.60
2022-09-05T16:34:57.066Z,1.38
2022-09-05T16:37:33.304Z,1.80
2022-09-05T16:40:12.437Z,1.90
2022-09-05T16:42:53.017Z,2.13
2022-09-05T16:45:35.780Z,1.90
2022-09-05T16:48:26.390Z,2.10
2022-09-05T16:51:15.253Z,1.80
2022-09-05T16:53:58.387Z,2.28
2022-09-05T16:56:38.423Z,1.67
2022-09-05T16:59:20.743Z,2.10
2022-09-05T17:02:13.422Z,1.87
2022-09-05T17:05:04.283Z,1.80
2022-09-05T17:08:03.771Z,2.20
2022-09-05T17:10:52.886Z,2.30
2022-09-05T17:13:40.752Z,2.00
2022-09-05T17:16:22.463Z,2.00
2022-09-05T17:18:59.696Z,2.50
2022-09-05T17:24:24.399Z,2.20
2022-09-05T17:29:20.924Z,2.35
2022-09-05T17:29:26.222Z,2.40
2022-09-05T17:33:57.672Z,2.20
2022-09-05T17:36:41.305Z,2.30
2022-09-05T17:39:44.261Z,2.50
2022-09-05T17:42:28.076Z,2.35
2022-09-05T17:45:13.061Z,3.67
2022-09-05T17:47:50.039Z,2.80
2022-09-05T17:50:51.540Z,2.70
2022-09-05T17:53:25.816Z,2.47
2022-09-05T17:56:17.117Z,2.50
2022-09-05T17:59:27.360Z,3.00
2022-09-05T18:02:32.489Z,2.65
2022-09-05T18:05:19.795Z,3.17
2022-09-05T18:08:00.897Z,2.40
2022-09-05T18:11:01.821Z,2.30
2022-09-05T18:13:35.257Z,3.10
2022-09-05T18:16:14.547Z,3.10
2022-09-05T18:19:33.090Z,2.65
2022-09-05T18:21:50.075Z,3.15
2022-09-05T18:24:33.207Z,2.93
2022-09-05T18:28:03.506Z,2.80
2022-09-05T18:30:27.299Z,3.00
2022-09-05T18:33:55.160Z,2.90
2022-09-05T18:36:36.950Z,2.85
2022-09-05T18:39:41.283Z,2.85
2022-09-05T18:42:25.994Z,3.22
2022-09-05T18:45:14.731Z,3.45
2022-09-05T18:47:58.803Z,3.27
2022-09-05T18:50:35.166Z,2.75
2022-09-05T18:53:12.825Z,2.80
2022-09-05T18:56:11.391Z,3.20
2022-09-05T18:58:55.596Z,3.08
2022-09-05T19:01:44.503Z,3.15
2022-09-05T19:04:39.565Z,2.60
2022-09-05T19:07:16.064Z,2.67
2022-09-05T19:10:33.784Z,3.80
2022-09-05T19:15:37.728Z,3.22
2022-09-05T19:18:25.739Z,3.65
2022-09-05T19:21:12.204Z,3.15
2022-09-05T19:23:51.169Z,3.50
2022-09-05T19:26:25.204Z,3.20
2022-09-05T19:36:45.596Z,3.30
2022-09-05T19:37:13.244Z,3.65
2022-09-05T19:37:14.798Z,4.30
2022-09-05T19:37:50.805Z,3.30
2022-09-05T19:47:24.880Z,3.42
2022-09-05T19:47:34.561Z,3.35
2022-09-05T19:47:38.730Z,3.10
2022-09-05T19:49:17.638Z,2.53
2022-09-05T19:51:52.553Z,2.90
2022-09-05T19:54:30.501Z,2.80
2022-09-05T19:57:05.941Z,3.08
2022-09-05T19:59:43.954Z,2.80
2022-09-05T20:02:25.774Z,3.55
2022-09-05T20:05:04.412Z,3.53
2022-09-05T20:07:39.615Z,3.70
2022-09-05T20:10:28.445Z,3.08
2022-09-05T20:13:03.534Z,3.23
2022-09-05T20:15:42.326Z,3.33
2022-09-05T20:18:27.090Z,3.10
2022-09-05T20:21:10.001Z,3.25
2022-09-05T20:23:45.864Z,3.70
2022-09-05T20:28:56.190Z,3.15
2022-09-05T20:31:33.329Z,3.00
2022-09-05T20:34:24.638Z,2.95
2022-09-05T20:43:08.561Z,3.05
2022-09-05T20:43:20.297Z,2.63
2022-09-05T20:43:23.649Z,3.25
2022-09-05T20:46:44.966Z,3.03
2022-09-05T20:54:06.773Z,2.88
2022-09-05T20:54:25.371Z,3.47
2022-09-05T20:54:47.898Z,3.25
2022-09-05T20:57:23.445Z,3.17
2022-09-05T20:59:58.228Z,3.30
2022-09-05T21:02:35.138Z,2.53
2022-09-05T21:05:21.185Z,3.20
2022-09-05T21:08:07.316Z,2.58
2022-09-05T21:10:55.941Z,3.15
2022-09-05T21:13:32.426Z,3.03
2022-09-05T21:18:51.757Z,2.92
2022-09-05T21:21:29.563Z,2.60
2022-09-05T21:24:16.442Z,2.50
2022-09-05T21:26:55.623Z,2.23
2022-09-05T21:29:33.922Z,2.75
2022-09-05T21:32:10.671Z,2.30
2022-09-05T21:34:49.046Z,3.00
2022-09-05T21:37:23.891Z,2.50
2022-09-05T21:40:02.161Z,2.22
2022-09-05T21:47:35.191Z,2.30
2022-09-05T21:47:40.992Z,2.33
2022-09-05T21:48:35.978Z,2.10
2022-09-05T21:51:11.505Z,2.00
2022-09-05T21:59:17.092Z,2.00
2022-09-05T21:59:27.445Z,2.40
2022-09-05T21:59:47.021Z,2.20
2022-09-05T22:02:22.726Z,1.80
2022-09-05T22:05:03.111Z,1.50
2022-09-05T22:07:37.772Z,1.60
2022-09-05T22:10:16.832Z,1.55
2022-09-05T22:12:52.753Z,1.90
2022-09-05T22:15:32.822Z,1.55
2022-09-05T22:18:17.484Z,1.90
2022-09-05T22:21:31.834Z,2.00
2022-09-05T22:23:49.657Z,1.83
2022-09-05T22:26:25.145Z,1.88
2022-09-05T22:29:00.521Z,1.80
2022-09-05T22:31:42.391Z,1.40
2022-09-05T22:34:17.487Z,1.90
2022-09-05T22:36:55.917Z,1.70
2022-09-05T22:39:36.897Z,1.27
2022-09-05T22:42:13.055Z,1.30
2022-09-05T22:44:48.412Z,1.67
2022-09-05T22:47:27.310Z,1.83
2022-09-05T22:50:01.323Z,1.45
2022-09-05T22:52:35.948Z,1.25
2022-09-05T22:55:12.864Z,1.60
2022-09-05T22:57:47.988Z,1.17
2022-09-05T23:00:23.469Z,1.17
2022-09-05T23:03:03.846Z,1.15
2022-09-05T23:05:38.847Z,1.15
2022-09-05T23:08:13.201Z,1.25
2022-09-05T23:10:47.377Z,1.38
2022-09-05T23:13:22.293Z,2.05
2022-09-05T23:16:00.160Z,1.58
2022-09-05T23:18:37.199Z,1.20
2022-09-05T23:21:10.920Z,1.67
2022-09-05T23:23:45.607Z,1.30
2022-09-05T23:26:21.303Z,1.60
2022-09-05T23:28:55.822Z,1.33
2022-09-05T23:31:30.588Z,1.75
2022-09-05T23:34:08.460Z,1.40
2022-09-05T23:36:45.396Z,1.40
2022-09-05T23:39:22.837Z,1.30
2022-09-05T23:41:59.272Z,1.30
2022-09-05T23:44:34.074Z,1.50
2022-09-05T23:47:09.518Z,1.10
2022-09-05T23:49:48.332Z,1.70
2022-09-05T23:52:23.127Z,1.73
2022-09-05T23:54:57.697Z,1.50
2022-09-05T23:57:32.286Z,1.20
